createdAt,value
2023-05-20T00:01:07.961Z,101279.40
2023-05-20T00:03:35.101Z,101278.48
2023-05-20T00:06:02.138Z,101277.98
2023-05-20T00:08:29.001Z,101273.70
2023-05-20T00:10:55.913Z,101271.48
2023-05-20T00:13:24.363Z,101269.65
2023-05-20T00:15:53.130Z,101269.63
2023-05-20T00:18:20.028Z,101270.29
2023-05-20T00:20:46.976Z,101272.16
2023-05-20T00:23:13.924Z,101271.67
2023-05-20T00:25:40.802Z,101273.55
2023-05-20T00:28:07.763Z,101276.02
2023-05-20T00:30:34.626Z,101274.83
2023-05-20T00:33:01.654Z,101274.01
2023-05-20T00:35:28.911Z,101273.71
2023-05-20T00:37:55.827Z,101273.27
2023-05-20T00:40:23.616Z,101277.04
2023-05-20T00:42:50.789Z,101276.95
2023-05-20T00:45:17.860Z,101274.27
2023-05-20T00:47:44.844Z,101273.55
2023-05-20T00:50:11.862Z,101271.14
2023-05-20T00:52:39.618Z,101276.27
2023-05-20T00:55:06.807Z,101275.12
2023-05-20T00:57:33.685Z,101272.05
2023-05-20T01:00:00.577Z,101272.29
2023-05-20T01:02:27.558Z,101263.59
2023-05-20T01:04:56.756Z,101258.98
2023-05-20T01:07:24.056Z,101254.89
2023-05-20T01:09:52.580Z,101254.89
2023-05-20T01:12:29.725Z,101250.55
2023-05-20T01:15:16.401Z,101251.59
2023-05-20T01:17:48.100Z,101249.31
2023-05-20T01:20:15.144Z,101247.39
2023-05-20T01:22:55.148Z,101245.95
2023-05-20T01:25:22.108Z,101244.75
2023-05-20T01:27:49.424Z,101247.80
2023-05-20T01:30:16.450Z,101244.06
2023-05-20T01:32:47.918Z,101246.91
2023-05-20T01:35:15.333Z,101244.92
2023-05-20T01:37:42.885Z,101241.84
2023-05-20T01:40:10.397Z,101242.05
2023-05-20T01:42:37.369Z,101242.77
2023-05-20T01:45:04.975Z,101246.90
2023-05-20T01:47:31.966Z,101251.41
2023-05-20T01:49:58.917Z,101249.48
2023-05-20T01:52:27.461Z,101250.85
2023-05-20T01:54:54.601Z,101252.39
2023-05-20T01:57:22.324Z,101256.42
2023-05-20T01:59:50.028Z,101258.17
2023-05-20T02:02:17.090Z,101260.48
2023-05-20T02:04:48.128Z,101259.70
2023-05-20T02:07:39.241Z,101260.29
2023-05-20T02:10:06.927Z,101258.73
2023-05-20T02:12:33.891Z,101261.67
2023-05-20T02:15:00.979Z,101258.36
2023-05-20T02:17:28.827Z,101258.16
2023-05-20T02:19:57.569Z,101260.41
2023-05-20T02:22:24.525Z,101261.16
2023-05-20T02:24:51.450Z,101259.38
2023-05-20T02:27:18.416Z,101258.02
2023-05-20T02:29:45.448Z,101255.75
2023-05-20T02:32:12.650Z,101252.57
2023-05-20T02:34:39.562Z,101253.14
2023-05-20T02:37:06.528Z,101252.27
2023-05-20T02:39:33.433Z,101252.89
2023-05-20T02:42:00.430Z,101256.83
2023-05-20T02:44:27.428Z,101259.81
2023-05-20T02:46:54.901Z,101262.34
2023-05-20T02:49:21.817Z,101265.30
2023-05-20T02:51:48.868Z,101268.65
2023-05-20T02:54:16.293Z,101270.46
2023-05-20T02:56:43.232Z,101272.66
2023-05-20T02:59:10.135Z,101275.56
2023-05-20T03:01:37.039Z,101278.14
2023-05-20T03:04:04.815Z,101277.71
2023-05-20T03:06:34.754Z,101279.96
2023-05-20T03:09:01.644Z,101280.86
2023-05-20T03:11:29.682Z,101283.41
2023-05-20T03:13:56.748Z,101283.41
2023-05-20T03:16:25.458Z,101283.61
2023-05-20T03:18:52.472Z,101286.44
2023-05-20T03:21:19.751Z,101291.64
2023-05-20T03:23:46.967Z,101294.89
2023-05-20T03:26:13.921Z,101299.30
2023-05-20T03:28:41.222Z,101298.13
2023-05-20T03:31:08.524Z,101295.38
2023-05-20T03:33:35.790Z,101294.80
2023-05-20T03:36:03.308Z,101292.89
2023-05-20T03:38:30.641Z,101291.88
2023-05-20T03:40:57.628Z,101294.92
2023-05-20T03:43:25.403Z,101298.09
2023-05-20T03:45:52.349Z,101298.79
2023-05-20T03:48:20.295Z,101297.46
2023-05-20T03:50:47.496Z,101295.34
2023-05-20T03:53:14.386Z,101294.02
2023-05-20T03:55:42.578Z,101297.73
2023-05-20T03:58:10.241Z,101297.66
2023-05-20T04:00:37.248Z,101297.39
2023-05-20T04:03:04.468Z,101296.90
2023-05-20T04:05:31.931Z,101301.32
2023-05-20T04:08:00.641Z,101299.95
2023-05-20T04:10:27.566Z,101303.92
2023-05-20T04:12:54.507Z,101307.54
2023-05-20T04:15:24.036Z,101311.95
2023-05-20T04:17:54.932Z,101311.14
2023-05-20T04:20:22.060Z,101312.05
2023-05-20T04:22:49.042Z,101307.18
2023-05-20T04:25:26.234Z,101307.48
2023-05-20T04:27:54.338Z,101309.27
2023-05-20T04:30:22.121Z,101311.09
2023-05-20T04:32:50.937Z,101318.73
2023-05-20T04:35:18.228Z,101323.80
2023-05-20T04:37:48.252Z,101327.27
2023-05-20T04:40:15.608Z,101325.20
2023-05-20T04:42:43.720Z,101327.66
2023-05-20T04:45:12.549Z,101327.17
2023-05-20T04:47:40.374Z,101327.36
2023-05-20T04:50:10.929Z,101329.82
2023-05-20T04:52:42.066Z,101324.88
2023-05-20T04:55:12.158Z,101321.06
2023-05-20T04:57:42.072Z,101326.22
2023-05-20T05:00:10.856Z,101327.91
2023-05-20T05:02:38.212Z,101326.36
2023-05-20T05:05:05.861Z,101328.02
2023-05-20T05:07:32.965Z,101331.48
2023-05-20T05:09:59.931Z,101333.80
2023-05-20T05:13:39.677Z,101330.95
2023-05-20T05:16:07.048Z,101333.49
2023-05-20T05:18:34.846Z,101336.06
2023-05-20T05:21:02.873Z,101333.19
2023-05-20T05:23:29.907Z,101335.16
2023-05-20T05:25:57.345Z,101340.89
2023-05-20T05:28:24.647Z,101339.96
2023-05-20T05:30:51.565Z,101339.30
2023-05-20T05:33:18.508Z,101343.90
2023-05-20T05:35:45.957Z,101343.14
2023-05-20T05:38:12.886Z,101344.36
2023-05-20T05:40:40.129Z,101346.05
2023-05-20T05:43:07.190Z,101344.52
2023-05-20T05:45:34.823Z,101348.64
2023-05-20T05:48:02.059Z,101349.54
2023-05-20T05:50:29.284Z,101354.71
2023-05-20T05:52:56.555Z,101349.27
2023-05-20T05:55:24.396Z,101348.58
2023-05-20T05:57:51.552Z,101350.06
2023-05-20T06:00:18.623Z,101349.09
2023-05-20T06:02:46.399Z,101346.89
2023-05-20T06:05:15.014Z,101346.28
2023-05-20T06:07:42.074Z,101344.02
2023-05-20T06:10:10.625Z,101340.70
2023-05-20T06:12:37.550Z,101340.77
2023-05-20T06:15:04.707Z,101337.63
2023-05-20T06:17:31.645Z,101336.70
2023-05-20T06:19:58.594Z,101332.55
2023-05-20T06:22:25.702Z,101336.66
2023-05-20T06:24:54.044Z,101339.77
2023-05-20T06:27:21.054Z,101336.13
2023-05-20T06:29:47.959Z,101336.92
2023-05-20T06:32:14.875Z,101335.55
2023-05-20T06:34:41.804Z,101336.05
2023-05-20T06:37:08.693Z,101334.86
2023-05-20T06:39:36.342Z,101334.46
2023-05-20T06:42:03.574Z,101334.02
2023-05-20T06:44:35.035Z,101328.69
2023-05-20T06:47:15.166Z,101327.94
2023-05-20T06:49:46.505Z,101328.41
2023-05-20T06:52:14.660Z,101335.00
2023-05-20T06:54:41.946Z,101335.65
2023-05-20T06:57:10.853Z,101331.84
2023-05-20T06:59:37.868Z,101330.04
2023-05-20T07:02:06.088Z,101331.17
2023-05-20T07:04:33.035Z,101331.19
2023-05-20T07:06:59.966Z,101333.41
2023-05-20T07:09:26.937Z,101336.05
2023-05-20T07:11:54.051Z,101336.72
2023-05-20T07:14:21.395Z,101337.71
2023-05-20T07:16:48.448Z,101338.81
2023-05-20T07:19:15.364Z,101342.25
2023-05-20T07:21:42.412Z,101341.33
2023-05-20T07:24:33.078Z,101340.59
2023-05-20T07:27:00.007Z,101338.16
2023-05-20T07:29:27.334Z,101330.84
2023-05-20T07:31:55.126Z,101337.61
2023-05-20T07:34:22.937Z,101333.83
2023-05-20T07:36:51.461Z,101336.89
2023-05-20T07:39:18.435Z,101336.96
2023-05-20T07:41:45.508Z,101333.73
2023-05-20T07:44:14.316Z,101329.53
2023-05-20T07:46:45.848Z,101325.95
2023-05-20T07:49:12.859Z,101325.88
2023-05-20T07:51:40.122Z,101324.61
2023-05-20T07:54:07.798Z,101327.46
2023-05-20T07:56:34.958Z,101330.16
2023-05-20T07:59:03.542Z,101328.75
2023-05-20T08:01:35.489Z,101326.30
2023-05-20T08:04:04.918Z,101327.27
2023-05-20T08:06:32.817Z,101326.26
2023-05-20T08:09:02.058Z,101328.05
2023-05-20T08:11:32.817Z,101325.42
2023-05-20T08:14:00.308Z,101324.98
2023-05-20T08:16:29.161Z,101322.02
2023-05-20T08:18:56.113Z,101322.22
2023-05-20T08:21:22.990Z,101326.29
2023-05-20T08:23:50.091Z,101323.75
2023-05-20T08:26:17.653Z,101316.84
2023-05-20T08:28:44.577Z,101317.48
2023-05-20T08:31:11.954Z,101320.06
2023-05-20T08:33:38.889Z,101315.77
2023-05-20T08:36:08.322Z,101313.64
2023-05-20T08:38:45.968Z,101310.96
2023-05-20T08:41:19.069Z,101307.92
2023-05-20T08:43:46.843Z,101312.15
2023-05-20T08:46:16.313Z,101312.64
2023-05-20T08:48:45.329Z,101309.10
2023-05-20T08:51:12.299Z,101304.48
2023-05-20T08:53:40.024Z,101310.09
2023-05-20T08:56:07.886Z,101311.10
2023-05-20T08:58:34.989Z,101316.20
2023-05-20T09:01:02.328Z,101316.53
2023-05-20T09:03:29.358Z,101311.67
2023-05-20T09:06:04.742Z,101311.89
2023-05-20T09:08:31.684Z,101307.45
2023-05-20T09:10:58.724Z,101307.15
2023-05-20T09:13:25.610Z,101310.91
2023-05-20T09:15:52.794Z,101308.87
2023-05-20T09:18:20.097Z,101306.52
2023-05-20T09:20:49.165Z,101306.70
2023-05-20T09:23:16.071Z,101311.89
2023-05-20T09:25:42.962Z,101312.45
2023-05-20T09:28:10.021Z,101314.88
2023-05-20T09:30:36.936Z,101316.13
2023-05-20T09:33:04.996Z,101319.21
2023-05-20T09:35:35.779Z,101315.16
2023-05-20T09:38:03.560Z,101311.67
2023-05-20T09:40:30.428Z,101311.68
2023-05-20T09:43:04.244Z,101316.90
2023-05-20T09:45:31.265Z,101309.34
2023-05-20T09:47:58.396Z,101307.83
2023-05-20T09:50:25.527Z,101304.80
2023-05-20T09:52:53.278Z,101309.71
2023-05-20T09:55:23.326Z,101306.32
2023-05-20T09:57:50.310Z,101306.35
2023-05-20T10:00:17.761Z,101305.20
2023-05-20T10:02:46.170Z,101299.20
2023-05-20T10:05:30.290Z,101292.26
2023-05-20T10:08:01.425Z,101296.71
2023-05-20T10:10:45.151Z,101296.67
2023-05-20T10:13:14.999Z,101296.05
2023-05-20T10:15:48.863Z,101297.30
2023-05-20T10:18:40.261Z,101292.32
2023-05-20T10:21:18.832Z,101294.39
2023-05-20T10:23:45.853Z,101299.48
2023-05-20T10:26:12.803Z,101302.55
2023-05-20T10:28:41.068Z,101297.20
2023-05-20T10:31:23.693Z,101292.27
2023-05-20T10:33:52.819Z,101292.69
2023-05-20T10:36:27.012Z,101297.34
2023-05-20T10:38:58.146Z,101294.74
2023-05-20T10:41:28.940Z,101292.04
2023-05-20T10:44:03.292Z,101285.06
2023-05-20T10:46:38.000Z,101284.41
2023-05-20T10:49:22.432Z,101283.02
2023-05-20T10:51:51.691Z,101285.23
2023-05-20T10:54:18.561Z,101281.95
2023-05-20T10:56:52.763Z,101282.91
2023-05-20T10:59:20.069Z,101285.23
2023-05-20T11:01:47.045Z,101289.38
2023-05-20T11:04:16.402Z,101291.27
2023-05-20T11:06:54.206Z,101288.46
2023-05-20T11:09:22.083Z,101281.05
2023-05-20T11:11:49.974Z,101278.09
2023-05-20T11:14:18.342Z,101274.29
2023-05-20T11:16:45.991Z,101272.42
2023-05-20T11:19:16.740Z,101272.13
2023-05-20T11:21:47.164Z,101268.66
2023-05-20T11:24:14.421Z,101268.82
2023-05-20T11:26:41.436Z,101269.94
2023-05-20T11:29:08.449Z,101270.02
2023-05-20T11:31:38.081Z,101272.31
2023-05-20T11:34:05.010Z,101267.61
2023-05-20T11:36:32.572Z,101271.81
2023-05-20T11:38:59.997Z,101266.52
2023-05-20T11:41:27.476Z,101257.77
2023-05-20T11:44:03.804Z,101259.35
2023-05-20T11:46:33.524Z,101262.92
2023-05-20T11:49:00.560Z,101264.64
2023-05-20T11:51:28.178Z,101260.59
2023-05-20T11:54:05.136Z,101259.15
2023-05-20T11:56:33.929Z,101255.44
2023-05-20T11:59:01.253Z,101251.84
2023-05-20T12:01:38.134Z,101249.02
2023-05-20T12:04:05.708Z,101243.83
2023-05-20T12:06:32.987Z,101239.90
2023-05-20T12:09:07.432Z,101244.96
2023-05-20T12:11:35.809Z,101246.58
2023-05-20T12:14:08.732Z,101242.03
2023-05-20T12:16:35.949Z,101247.76
2023-05-20T12:19:02.950Z,101245.65
2023-05-20T12:21:30.039Z,101238.78
2023-05-20T12:23:58.185Z,101235.89
2023-05-20T12:26:25.982Z,101231.48
2023-05-20T12:28:53.133Z,101236.25
2023-05-20T12:31:20.140Z,101228.27
2023-05-20T12:33:47.177Z,101229.98
2023-05-20T12:36:15.166Z,101224.42
2023-05-20T12:38:44.824Z,101224.38
2023-05-20T12:41:13.577Z,101220.70
2023-05-20T12:43:41.015Z,101220.77
2023-05-20T12:46:08.135Z,101222.90
2023-05-20T12:48:35.288Z,101221.95
2023-05-20T12:51:02.228Z,101217.61
2023-05-20T12:53:29.232Z,101219.30
2023-05-20T12:55:56.148Z,101219.19
2023-05-20T12:58:23.700Z,101216.39
2023-05-20T13:00:50.741Z,101211.69
2023-05-20T13:03:18.261Z,101209.17
2023-05-20T13:05:45.353Z,101202.84
2023-05-20T13:08:13.037Z,101197.77
2023-05-20T13:10:39.954Z,101198.23
2023-05-20T13:13:06.887Z,101193.59
2023-05-20T13:15:34.536Z,101197.73
2023-05-20T13:18:05.985Z,101191.60
2023-05-20T13:20:33.068Z,101192.15
2023-05-20T13:23:03.316Z,101192.27
2023-05-20T13:25:36.938Z,101192.20
2023-05-20T13:28:07.091Z,101190.94
2023-05-20T13:30:34.628Z,101189.95
2023-05-20T13:33:01.814Z,101192.06
2023-05-20T13:35:28.796Z,101197.04
2023-05-20T13:38:10.456Z,101194.29
2023-05-20T13:40:37.688Z,101196.42
2023-05-20T13:43:04.593Z,101195.16
2023-05-20T13:45:31.493Z,101194.88
2023-05-20T13:47:58.478Z,101190.91
2023-05-20T13:50:26.430Z,101186.87
2023-05-20T13:52:53.370Z,101188.20
2023-05-20T13:55:20.314Z,101181.30
2023-05-20T13:57:47.299Z,101180.78
2023-05-20T14:00:14.767Z,101177.77
2023-05-20T14:02:42.086Z,101183.26
2023-05-20T14:05:09.197Z,101186.52
2023-05-20T14:07:36.213Z,101186.38
2023-05-20T14:10:03.146Z,101179.27
2023-05-20T14:12:30.075Z,101184.92
2023-05-20T14:14:57.794Z,101183.05
2023-05-20T14:17:24.735Z,101176.35
2023-05-20T14:19:51.619Z,101174.77
2023-05-20T14:22:19.959Z,101177.02
2023-05-20T14:24:46.872Z,101173.62
2023-05-20T14:27:14.359Z,101169.77
2023-05-20T14:29:41.415Z,101168.30
2023-05-20T14:32:09.187Z,101167.92
2023-05-20T14:34:36.214Z,101166.02
2023-05-20T14:37:09.886Z,101159.55
2023-05-20T14:39:36.903Z,101162.19
2023-05-20T14:42:04.025Z,101161.52
2023-05-20T14:44:30.933Z,101161.04
2023-05-20T14:46:57.974Z,101159.98
2023-05-20T14:49:24.941Z,101153.58
2023-05-20T14:51:51.848Z,101155.64
2023-05-20T14:54:24.879Z,101158.66
2023-05-20T14:56:54.683Z,101158.11
2023-05-20T14:59:21.570Z,101153.60
2023-05-20T15:01:48.616Z,101147.58
2023-05-20T15:04:15.820Z,101139.54
2023-05-20T15:06:42.665Z,101134.33
2023-05-20T15:09:10.278Z,101138.66
2023-05-20T15:11:37.191Z,101134.55
2023-05-20T15:14:04.074Z,101136.34
2023-05-20T15:16:31.075Z,101134.26
2023-05-20T15:18:58.024Z,101132.66
2023-05-20T15:21:25.267Z,101127.56
2023-05-20T15:23:52.220Z,101130.59
2023-05-20T15:26:19.159Z,101131.04
2023-05-20T15:28:46.233Z,101130.46
2023-05-20T15:31:13.170Z,101132.54
2023-05-20T15:33:40.264Z,101129.65
2023-05-20T15:36:07.487Z,101125.27
2023-05-20T15:38:34.557Z,101124.42
2023-05-20T15:41:02.291Z,101129.52
2023-05-20T15:43:29.238Z,101129.92
2023-05-20T15:45:56.253Z,101126.21
2023-05-20T15:48:23.785Z,101129.04
2023-05-20T15:50:50.679Z,101125.82
2023-05-20T15:53:17.569Z,101128.06
2023-05-20T15:55:45.148Z,101127.11
2023-05-20T15:58:12.270Z,101125.24
2023-05-20T16:00:39.416Z,101128.20
2023-05-20T16:03:06.387Z,101129.52
2023-05-20T16:05:33.590Z,101129.92
2023-05-20T16:08:01.006Z,101132.23
2023-05-20T16:10:32.644Z,101130.66
2023-05-20T16:13:03.161Z,101127.36
2023-05-20T16:15:36.515Z,101127.31
2023-05-20T16:18:03.675Z,101129.20
2023-05-20T16:20:30.630Z,101127.69
2023-05-20T16:22:57.567Z,101123.82
2023-05-20T16:25:24.528Z,101122.77
2023-05-20T16:27:51.385Z,101126.46
2023-05-20T16:30:18.302Z,101132.85
2023-05-20T16:32:45.430Z,101137.42
2023-05-20T16:35:14.274Z,101139.54
2023-05-20T16:37:42.959Z,101140.81
2023-05-20T16:40:10.097Z,101140.27
2023-05-20T16:42:37.359Z,101133.39
2023-05-20T16:45:04.615Z,101136.37
2023-05-20T16:47:33.088Z,101138.10
2023-05-20T16:49:59.973Z,101138.91
2023-05-20T16:52:26.869Z,101135.18
2023-05-20T16:54:53.933Z,101133.85
2023-05-20T16:57:20.942Z,101134.65
2023-05-20T16:59:47.835Z,101133.02
2023-05-20T17:02:14.830Z,101130.08
2023-05-20T17:04:43.104Z,101129.91
2023-05-20T17:07:11.520Z,101135.67
2023-05-20T17:09:38.366Z,101135.88
2023-05-20T17:12:05.674Z,101135.20
2023-05-20T17:14:32.565Z,101137.98
2023-05-20T17:16:59.553Z,101144.21
2023-05-20T17:19:26.621Z,101147.46
2023-05-20T17:21:53.550Z,101147.85
2023-05-20T17:24:20.661Z,101147.89
2023-05-20T17:26:47.572Z,101149.04
2023-05-20T17:41:53.650Z,101148.42
2023-05-20T17:44:20.647Z,101145.17
2023-05-20T17:46:48.641Z,101147.10
2023-05-20T17:49:15.666Z,101147.91
2023-05-20T17:51:42.561Z,101150.97
2023-05-20T17:54:09.505Z,101150.14
2023-05-20T17:56:36.396Z,101149.34
2023-05-20T17:59:03.275Z,101153.57
2023-05-20T18:01:30.183Z,101157.44
2023-05-20T18:03:59.149Z,101160.66
2023-05-20T18:06:26.596Z,101159.73
2023-05-20T18:08:53.587Z,101156.55
2023-05-20T18:11:21.276Z,101155.84
2023-05-20T18:13:48.086Z,101158.27
2023-05-20T18:16:15.617Z,101158.61
2023-05-20T18:18:42.686Z,101164.82
2023-05-20T18:21:10.275Z,101168.89
2023-05-20T18:23:37.141Z,101171.27
2023-05-20T18:26:07.060Z,101174.86
2023-05-20T18:28:33.998Z,101175.45
2023-05-20T18:31:00.906Z,101180.34
2023-05-20T18:33:28.049Z,101182.80
2023-05-20T18:35:55.153Z,101186.51
2023-05-20T18:38:22.077Z,101187.83
2023-05-20T18:40:49.213Z,101187.44
2023-05-20T18:43:16.159Z,101189.86
2023-05-20T18:45:43.253Z,101192.19
2023-05-20T18:48:10.347Z,101191.84
2023-05-20T18:50:37.783Z,101189.95
2023-05-20T18:53:04.832Z,101191.08
2023-05-20T18:55:31.994Z,101191.33
2023-05-20T18:57:59.336Z,101192.77
2023-05-20T19:00:26.410Z,101194.09
2023-05-20T19:02:53.618Z,101194.89
2023-05-20T19:05:20.696Z,101195.86
2023-05-20T19:07:47.669Z,101198.80
2023-05-20T19:10:15.331Z,101203.23
2023-05-20T19:12:43.639Z,101202.61
2023-05-20T19:15:11.041Z,101205.60
2023-05-20T19:17:38.245Z,101205.02
2023-05-20T19:20:07.295Z,101206.59
2023-05-20T19:22:34.435Z,101207.47
2023-05-20T19:25:01.409Z,101207.33
2023-05-20T19:27:28.337Z,101210.14
2023-05-20T19:29:55.279Z,101210.37
2023-05-20T19:32:22.277Z,101210.23
2023-05-20T19:34:49.359Z,101212.70
2023-05-20T19:37:16.250Z,101211.62
2023-05-20T19:39:43.179Z,101211.73
2023-05-20T19:42:10.091Z,101213.27
2023-05-20T19:44:36.967Z,101210.98
2023-05-20T19:47:05.865Z,101206.85
2023-05-20T19:49:33.248Z,101204.84
2023-05-20T19:52:00.687Z,101206.85
2023-05-20T19:54:27.804Z,101203.26
2023-05-20T19:56:54.709Z,101206.65
2023-05-20T19:59:21.688Z,101209.41
2023-05-20T20:01:48.691Z,101211.55
2023-05-20T20:04:18.447Z,101211.39
2023-05-20T20:06:45.512Z,101211.64
2023-05-20T20:09:12.492Z,101209.55
2023-05-20T20:11:39.516Z,101210.41
2023-05-20T20:14:06.525Z,101214.90
2023-05-20T20:16:33.614Z,101216.79
2023-05-20T20:19:01.448Z,101217.91
2023-05-20T20:21:28.464Z,101218.30
2023-05-20T20:23:55.536Z,101218.78
2023-05-20T20:26:25.984Z,101220.11
2023-05-20T20:28:53.031Z,101214.29
2023-05-20T20:31:20.038Z,101212.27
2023-05-20T20:33:47.607Z,101211.71
2023-05-20T20:36:14.567Z,101207.42
2023-05-20T20:38:46.871Z,101207.20
2023-05-20T20:41:16.316Z,101209.77
2023-05-20T20:43:45.063Z,101206.40
2023-05-20T20:46:15.069Z,101205.36
2023-05-20T20:48:45.922Z,101207.55
2023-05-20T20:51:14.037Z,101210.52
2023-05-20T20:53:46.362Z,101208.89
2023-05-20T20:56:13.401Z,101207.90
2023-05-20T20:58:40.310Z,101209.40
2023-05-20T21:01:07.352Z,101212.84
2023-05-20T21:03:34.362Z,101213.17
2023-05-20T21:06:04.055Z,101219.48
2023-05-20T21:08:32.041Z,101215.85
2023-05-20T21:10:59.549Z,101215.14
2023-05-20T21:13:27.898Z,101210.90
2023-05-20T21:15:54.855Z,101213.31
2023-05-20T21:18:22.670Z,101211.33
2023-05-20T21:20:53.621Z,101212.73
2023-05-20T21:23:21.066Z,101208.63
2023-05-20T21:25:48.216Z,101203.04
2023-05-20T21:28:15.367Z,101202.22
2023-05-20T21:30:42.509Z,101202.45
2023-05-20T21:33:09.757Z,101201.71
2023-05-20T21:35:37.031Z,101203.98
2023-05-20T21:38:04.138Z,101206.45
2023-05-20T21:40:31.150Z,101206.96
2023-05-20T21:42:57.986Z,101211.02
2023-05-20T21:45:25.123Z,101209.53
2023-05-20T21:47:52.034Z,101211.49
2023-05-20T21:50:18.984Z,101210.55
2023-05-20T21:52:45.944Z,101209.27
2023-05-20T21:55:12.816Z,101206.92
2023-05-20T21:57:39.794Z,101207.81
2023-05-20T22:00:10.429Z,101208.84
2023-05-20T22:02:37.771Z,101210.41
2023-05-20T22:05:05.282Z,101210.34
2023-05-20T22:07:33.251Z,101212.03
2023-05-20T22:10:00.866Z,101206.69
2023-05-20T22:12:28.065Z,101206.04
2023-05-20T22:14:55.026Z,101200.29
2023-05-20T22:17:23.934Z,101200.75
2023-05-20T22:19:50.921Z,101200.24
2023-05-20T22:22:17.874Z,101198.33
2023-05-20T22:24:44.773Z,101202.70
2023-05-20T22:27:11.810Z,101210.51
2023-05-20T22:29:38.757Z,101218.40
2023-05-20T22:32:06.216Z,101217.93
2023-05-20T22:34:33.143Z,101221.35
2023-05-20T22:37:00.313Z,101218.61
2023-05-20T22:39:27.355Z,101215.90
2023-05-20T22:41:54.304Z,101215.17
2023-05-20T22:44:21.563Z,101217.41
2023-05-20T22:46:48.470Z,101220.98
2023-05-20T22:49:15.582Z,101222.53
2023-05-20T22:51:42.850Z,101219.26
2023-05-20T22:54:09.899Z,101211.45
2023-05-20T22:56:37.055Z,101209.83
2023-05-20T22:59:04.100Z,101211.89
2023-05-20T23:01:31.093Z,101209.55
2023-05-20T23:03:58.261Z,101207.23
2023-05-20T23:06:25.752Z,101210.58
2023-05-20T23:08:52.866Z,101214.37
2023-05-20T23:11:19.827Z,101214.78
2023-05-20T23:13:46.785Z,101219.06
2023-05-20T23:16:14.249Z,101214.16
2023-05-20T23:18:41.321Z,101210.38
2023-05-20T23:21:08.392Z,101207.98
2023-05-20T23:23:35.504Z,101204.20
2023-05-20T23:26:02.503Z,101203.22
2023-05-20T23:28:29.427Z,101205.52
2023-05-20T23:30:56.722Z,101206.02
2023-05-20T23:33:25.334Z,101203.95
2023-05-20T23:35:52.974Z,101205.05
2023-05-20T23:38:19.969Z,101203.39
2023-05-20T23:40:47.581Z,101202.86
2023-05-20T23:43:14.612Z,101201.84
2023-05-20T23:45:41.651Z,101202.05
2023-05-20T23:48:13.053Z,101201.75
2023-05-20T23:50:40.758Z,101206.10
2023-05-20T23:53:07.749Z,101206.20
2023-05-20T23:55:35.211Z,101208.33
2023-05-20T23:58:02.499Z,101204.25
